createdAt,value
2022-07-30T00:00:12.786Z,2.40
2022-07-30T00:02:51.545Z,2.70
2022-07-30T00:05:18.034Z,2.92
2022-07-30T00:07:44.471Z,2.53
2022-07-30T00:10:10.988Z,2.55
2022-07-30T00:12:37.440Z,2.78
2022-07-30T00:15:04.257Z,2.92
2022-07-30T00:17:30.746Z,2.67
2022-07-30T00:19:58.448Z,2.90
2022-07-30T00:22:25.764Z,2.70
2022-07-30T00:24:52.262Z,2.75
2022-07-30T00:27:19.293Z,2.85
2022-07-30T00:29:45.848Z,2.83
2022-07-30T00:32:12.286Z,3.05
2022-07-30T00:34:38.833Z,3.00
2022-07-30T00:37:06.055Z,2.92
2022-07-30T00:39:32.585Z,3.00
2022-07-30T00:42:01.051Z,2.90
2022-07-30T00:44:28.854Z,3.10
2022-07-30T00:46:56.365Z,2.60
2022-07-30T00:49:23.188Z,3.03
2022-07-30T00:51:50.129Z,2.78
2022-07-30T00:54:16.668Z,3.42
2022-07-30T00:56:43.771Z,3.25
2022-07-30T00:59:10.412Z,2.92
2022-07-30T01:01:37.110Z,3.28
2022-07-30T01:04:03.769Z,3.00
2022-07-30T01:06:30.411Z,3.03
2022-07-30T01:08:57.266Z,3.08
2022-07-30T01:11:31.789Z,2.85
2022-07-30T01:13:58.722Z,3.25
2022-07-30T01:16:25.590Z,3.50
2022-07-30T01:19:12.429Z,3.80
2022-07-30T01:21:43.912Z,2.97
2022-07-30T01:24:30.565Z,3.15
2022-07-30T01:26:58.089Z,3.20
2022-07-30T01:29:27.318Z,2.92
2022-07-30T01:31:59.942Z,3.38
2022-07-30T01:34:29.903Z,3.30
2022-07-30T01:36:59.497Z,2.92
2022-07-30T01:39:26.961Z,3.35
2022-07-30T01:41:55.627Z,3.42
2022-07-30T01:44:25.807Z,3.13
2022-07-30T01:46:54.475Z,3.72
2022-07-30T01:49:24.058Z,3.47
2022-07-30T01:51:51.969Z,3.08
2022-07-30T01:54:21.802Z,3.47
2022-07-30T01:56:51.251Z,3.60
2022-07-30T01:59:20.772Z,3.42
2022-07-30T02:01:48.022Z,3.70
2022-07-30T02:04:14.979Z,3.80
2022-07-30T02:06:47.431Z,3.78
2022-07-30T02:09:18.732Z,3.67
2022-07-30T02:12:05.724Z,3.65
2022-07-30T02:14:52.431Z,3.58
2022-07-30T02:17:30.208Z,3.45
2022-07-30T02:20:01.286Z,3.35
2022-07-30T02:22:33.299Z,3.78
2022-07-30T02:25:01.590Z,3.78
2022-07-30T02:27:32.114Z,3.65
2022-07-30T02:30:01.448Z,3.47
2022-07-30T02:32:33.095Z,3.85
2022-07-30T02:35:05.266Z,3.33
2022-07-30T02:37:41.063Z,3.72
2022-07-30T02:40:15.621Z,3.50
2022-07-30T02:42:45.146Z,3.90
2022-07-30T02:45:13.069Z,3.50
2022-07-30T02:47:42.898Z,3.90
2022-07-30T02:50:10.981Z,3.67
2022-07-30T02:52:39.085Z,3.70
2022-07-30T02:55:07.995Z,4.00
2022-07-30T02:57:35.966Z,4.07
2022-07-30T03:00:10.969Z,3.92
2022-07-30T03:02:39.389Z,3.80
2022-07-30T03:05:07.881Z,4.18
2022-07-30T03:07:35.854Z,4.18
2022-07-30T03:10:03.480Z,4.00
2022-07-30T03:12:32.940Z,4.15
2022-07-30T03:14:59.475Z,3.80
2022-07-30T03:17:28.093Z,3.80
2022-07-30T03:19:55.894Z,3.92
2022-07-30T03:22:29.974Z,4.18
2022-07-30T03:24:59.248Z,3.72
2022-07-30T03:27:26.328Z,4.03
2022-07-30T03:29:55.071Z,4.25
2022-07-30T03:32:26.256Z,4.40
2022-07-30T03:34:54.180Z,3.60
2022-07-30T03:37:21.442Z,4.40
2022-07-30T03:39:48.538Z,4.10
2022-07-30T03:42:15.942Z,4.18
2022-07-30T03:44:45.733Z,4.25
2022-07-30T03:47:13.821Z,3.95
2022-07-30T03:49:40.663Z,4.05
2022-07-30T03:52:07.590Z,4.35
2022-07-30T03:54:35.211Z,4.53
2022-07-30T03:57:03.466Z,4.97
2022-07-30T03:59:30.670Z,4.65
2022-07-30T04:02:06.829Z,5.05
2022-07-30T04:04:34.023Z,4.78
2022-07-30T04:07:00.795Z,4.60
2022-07-30T04:09:27.552Z,4.75
2022-07-30T04:11:54.090Z,4.55
2022-07-30T04:14:20.514Z,4.32
2022-07-30T04:16:51.872Z,4.82
2022-07-30T04:19:23.201Z,4.30
2022-07-30T04:21:52.440Z,4.97
2022-07-30T04:24:20.251Z,4.85
2022-07-30T04:26:48.074Z,4.40
2022-07-30T04:29:18.220Z,4.68
2022-07-30T04:31:46.896Z,5.00
2022-07-30T04:34:15.186Z,5.38
2022-07-30T04:36:43.025Z,5.65
2022-07-30T04:39:10.140Z,4.97
2022-07-30T04:41:49.034Z,5.70
2022-07-30T04:44:17.864Z,5.63
2022-07-30T04:46:44.480Z,6.30
2022-07-30T04:49:12.753Z,5.22
2022-07-30T04:51:40.653Z,5.35
2022-07-30T04:54:15.548Z,5.40
2022-07-30T04:56:52.464Z,5.45
2022-07-30T04:59:23.655Z,5.72
2022-07-30T05:01:51.164Z,5.93
2022-07-30T05:04:19.366Z,5.60
2022-07-30T05:06:46.502Z,7.07
2022-07-30T05:09:16.143Z,6.40
2022-07-30T05:11:42.787Z,5.88
2022-07-30T05:14:09.253Z,6.82
2022-07-30T05:16:35.848Z,5.65
2022-07-30T05:19:02.309Z,5.85
2022-07-30T05:21:34.950Z,5.85
2022-07-30T05:24:01.402Z,5.88
2022-07-30T05:26:28.116Z,5.60
2022-07-30T05:28:56.605Z,6.13
2022-07-30T05:31:23.866Z,5.95
2022-07-30T05:33:52.346Z,5.45
2022-07-30T05:36:20.095Z,6.25
2022-07-30T05:38:47.173Z,5.57
2022-07-30T05:41:31.969Z,5.95
2022-07-30T05:43:59.675Z,6.03
2022-07-30T05:46:26.386Z,5.93
2022-07-30T05:48:53.071Z,6.28
2022-07-30T05:51:20.830Z,6.00
2022-07-30T05:53:47.611Z,5.75
2022-07-30T05:56:14.039Z,7.05
2022-07-30T05:58:40.632Z,6.47
2022-07-30T06:01:07.277Z,6.72
2022-07-30T06:03:34.842Z,6.10
2022-07-30T06:06:04.581Z,6.20
2022-07-30T06:08:31.716Z,6.35
2022-07-30T06:10:58.170Z,6.68
2022-07-30T06:13:24.958Z,7.25
2022-07-30T06:15:51.593Z,6.90
2022-07-30T06:18:18.102Z,6.65
2022-07-30T06:20:44.876Z,6.38
2022-07-30T06:23:11.439Z,6.25
2022-07-30T06:25:39.902Z,6.50
2022-07-30T06:28:27.424Z,6.72
2022-07-30T06:30:53.355Z,6.65
2022-07-30T06:33:19.908Z,7.38
2022-07-30T06:35:46.365Z,6.97
2022-07-30T06:38:12.827Z,7.05
2022-07-30T06:40:39.928Z,5.93
2022-07-30T06:43:06.363Z,7.78
2022-07-30T06:45:32.835Z,7.18
2022-07-30T06:47:59.834Z,7.30
2022-07-30T06:50:26.710Z,7.68
2022-07-30T06:52:53.418Z,7.40
2022-07-30T06:55:19.891Z,6.90
2022-07-30T06:57:46.363Z,7.25
2022-07-30T07:00:13.538Z,7.35
2022-07-30T07:02:39.979Z,7.45
2022-07-30T07:05:07.480Z,7.80
2022-07-30T07:07:42.289Z,7.80
2022-07-30T07:10:11.373Z,7.05
2022-07-30T07:12:37.927Z,7.45
2022-07-30T07:15:05.447Z,8.25
2022-07-30T07:17:32.048Z,7.80
2022-07-30T07:20:01.720Z,7.40
2022-07-30T07:22:28.700Z,6.78
2022-07-30T07:24:55.222Z,7.40
2022-07-30T07:27:21.756Z,7.75
2022-07-30T07:30:04.910Z,8.00
2022-07-30T07:32:32.654Z,7.63
2022-07-30T07:34:59.150Z,7.55
2022-07-30T07:37:25.609Z,6.78
2022-07-30T07:39:52.027Z,7.07
2022-07-30T07:42:18.498Z,7.57
2022-07-30T07:44:44.934Z,6.70
2022-07-30T07:47:11.363Z,6.70
2022-07-30T07:49:37.816Z,6.85
2022-07-30T07:52:04.526Z,7.10
2022-07-30T07:54:30.944Z,6.63
2022-07-30T07:56:57.482Z,6.82
2022-07-30T07:59:27.748Z,6.95
2022-07-30T08:02:06.414Z,6.85
2022-07-30T08:04:34.524Z,6.57
2022-07-30T08:07:01.247Z,7.13
2022-07-30T08:09:27.939Z,7.03
2022-07-30T08:12:10.958Z,7.25
2022-07-30T08:14:37.864Z,7.07
2022-07-30T08:17:04.511Z,6.10
2022-07-30T08:19:31.305Z,6.60
2022-07-30T08:21:59.734Z,6.53
2022-07-30T08:24:26.870Z,6.32
2022-07-30T08:26:53.728Z,5.63
2022-07-30T08:29:20.257Z,6.43
2022-07-30T08:31:46.695Z,7.10
2022-07-30T08:34:13.753Z,5.70
2022-07-30T08:36:40.821Z,6.28
2022-07-30T08:39:07.430Z,5.65
2022-07-30T08:41:36.204Z,5.55
2022-07-30T08:44:03.094Z,5.60
2022-07-30T08:46:32.155Z,5.18
2022-07-30T08:49:00.548Z,5.45
2022-07-30T08:51:37.706Z,5.07
2022-07-30T08:54:04.835Z,6.03
2022-07-30T08:56:32.636Z,4.65
2022-07-30T08:59:00.651Z,5.03
2022-07-30T09:01:27.383Z,4.80
2022-07-30T09:03:53.937Z,4.90
2022-07-30T09:06:20.455Z,4.78
2022-07-30T09:08:46.883Z,4.97
2022-07-30T09:11:14.027Z,4.40
2022-07-30T09:13:43.014Z,4.57
2022-07-30T09:16:20.203Z,4.15
2022-07-30T09:18:47.070Z,4.00
2022-07-30T09:21:16.906Z,3.75
2022-07-30T09:24:00.932Z,3.47
2022-07-30T09:26:28.235Z,4.30
2022-07-30T09:28:54.900Z,3.85
2022-07-30T09:31:22.415Z,4.10
2022-07-30T09:33:48.999Z,4.07
2022-07-30T09:36:17.798Z,3.97
2022-07-30T09:38:47.932Z,3.83
2022-07-30T09:41:37.562Z,3.28
2022-07-30T09:44:04.841Z,3.70
2022-07-30T09:46:47.443Z,3.40
2022-07-30T09:49:16.396Z,3.38
2022-07-30T09:51:55.787Z,3.70
2022-07-30T09:54:24.294Z,3.42
2022-07-30T09:57:26.207Z,3.60
2022-07-30T09:59:55.099Z,3.80
2022-07-30T10:02:29.248Z,3.60
2022-07-30T10:05:14.116Z,3.00
2022-07-30T10:07:49.586Z,2.90
2022-07-30T10:10:25.533Z,3.28
2022-07-30T10:12:58.394Z,3.00
2022-07-30T10:15:29.656Z,2.58
2022-07-30T10:17:56.498Z,2.70
2022-07-30T10:20:24.155Z,2.72
2022-07-30T10:22:52.059Z,2.53
2022-07-30T10:25:20.782Z,2.60
2022-07-30T10:27:50.592Z,1.92
2022-07-30T10:30:27.639Z,2.60
2022-07-30T10:32:56.569Z,2.60
2022-07-30T10:35:34.427Z,2.10
2022-07-30T10:38:09.955Z,2.08
2022-07-30T10:40:43.274Z,2.13
2022-07-30T10:43:31.689Z,2.03
2022-07-30T10:46:19.963Z,2.07
2022-07-30T10:48:50.015Z,2.17
2022-07-30T10:51:18.633Z,2.30
2022-07-30T10:53:52.202Z,2.30
2022-07-30T10:56:25.975Z,2.17
2022-07-30T10:59:10.162Z,3.03
2022-07-30T11:01:53.274Z,2.45
2022-07-30T11:04:25.536Z,2.33
2022-07-30T11:07:02.578Z,2.15
2022-07-30T11:09:42.713Z,1.85
2022-07-30T11:12:16.311Z,2.90
2022-07-30T11:14:46.125Z,2.70
2022-07-30T11:17:17.964Z,2.50
2022-07-30T11:20:02.660Z,2.40
2022-07-30T11:22:40.534Z,1.73
2022-07-30T11:25:50.456Z,2.53
2022-07-30T11:28:49.244Z,1.67
2022-07-30T11:31:56.639Z,1.98
2022-07-30T11:34:25.925Z,1.95
2022-07-30T11:37:19.130Z,1.98
2022-07-30T11:42:24.350Z,1.92
2022-07-30T11:44:51.272Z,2.28
2022-07-30T11:47:18.519Z,1.95
2022-07-30T11:49:48.087Z,2.22
2022-07-30T11:52:23.056Z,2.08
2022-07-30T11:54:54.086Z,2.17
2022-07-30T11:57:20.746Z,1.90
2022-07-30T11:59:55.625Z,1.98
2022-07-30T12:02:28.471Z,2.00
2022-07-30T12:04:55.062Z,2.13
2022-07-30T12:07:24.683Z,2.47
2022-07-30T12:09:51.135Z,2.40
2022-07-30T12:12:24.541Z,2.38
2022-07-30T12:14:51.453Z,2.30
2022-07-30T12:17:19.322Z,2.17
2022-07-30T12:19:48.865Z,2.30
2022-07-30T12:22:15.673Z,2.10
2022-07-30T12:24:42.167Z,2.10
2022-07-30T12:27:08.866Z,2.58
2022-07-30T12:29:35.819Z,1.98
2022-07-30T12:32:02.523Z,2.35
2022-07-30T12:34:29.193Z,2.25
2022-07-30T12:37:06.386Z,2.40
2022-07-30T12:39:32.821Z,1.80
2022-07-30T12:41:59.287Z,2.25
2022-07-30T12:44:35.104Z,2.00
2022-07-30T12:47:03.004Z,2.38
2022-07-30T12:49:36.593Z,2.20
2022-07-30T12:52:28.810Z,1.92
2022-07-30T12:55:01.946Z,1.90
2022-07-30T12:57:48.922Z,2.20
2022-07-30T13:00:16.345Z,1.83
2022-07-30T13:02:43.214Z,1.75
2022-07-30T13:05:11.261Z,1.77
2022-07-30T13:07:58.227Z,1.70
2022-07-30T13:10:30.456Z,1.40
2022-07-30T13:12:58.403Z,1.77
2022-07-30T13:15:24.981Z,1.80
2022-07-30T13:17:51.558Z,1.90
2022-07-30T13:20:18.165Z,1.55
2022-07-30T13:22:44.799Z,1.33
2022-07-30T13:25:11.695Z,1.70
2022-07-30T13:27:38.750Z,1.50
2022-07-30T13:30:06.099Z,1.42
2022-07-30T13:32:33.266Z,1.73
2022-07-30T13:35:01.596Z,1.67
2022-07-30T13:37:38.073Z,1.60
2022-07-30T13:40:06.421Z,1.52
2022-07-30T13:42:33.004Z,1.83
2022-07-30T13:44:59.530Z,1.60
2022-07-30T13:47:25.964Z,1.60
2022-07-30T13:49:52.430Z,1.58
2022-07-30T13:52:18.849Z,1.83
2022-07-30T13:54:45.348Z,1.27
2022-07-30T13:57:11.987Z,1.38
2022-07-30T13:59:38.455Z,1.50
2022-07-30T14:02:05.074Z,1.60
2022-07-30T14:04:31.753Z,1.30
2022-07-30T14:06:58.292Z,1.25
2022-07-30T14:09:24.907Z,1.20
2022-07-30T14:11:51.979Z,1.40
2022-07-30T14:14:18.983Z,1.35
2022-07-30T14:16:46.931Z,1.33
2022-07-30T14:19:23.911Z,1.30
2022-07-30T14:21:52.782Z,1.52
2022-07-30T14:24:19.979Z,1.20
2022-07-30T14:26:46.548Z,1.73
2022-07-30T14:29:12.996Z,1.10
2022-07-30T14:31:40.636Z,1.50
2022-07-30T14:34:07.066Z,1.20
2022-07-30T14:36:33.697Z,1.30
2022-07-30T14:39:01.947Z,1.10
2022-07-30T14:41:28.497Z,1.30
2022-07-30T14:43:55.035Z,1.40
2022-07-30T14:46:21.591Z,1.10
2022-07-30T14:48:48.191Z,1.17
2022-07-30T14:51:21.766Z,1.33
2022-07-30T14:53:52.091Z,1.10
2022-07-30T14:56:19.379Z,1.17
2022-07-30T14:58:46.211Z,1.30
2022-07-30T15:01:16.634Z,1.10
2022-07-30T15:03:44.811Z,1.17
2022-07-30T15:06:12.725Z,1.33
2022-07-30T15:08:39.307Z,1.30
2022-07-30T15:11:06.162Z,1.27
2022-07-30T15:13:34.873Z,1.25
2022-07-30T15:16:02.956Z,1.00
2022-07-30T15:18:29.520Z,1.45
2022-07-30T15:20:56.435Z,1.38
2022-07-30T15:23:22.899Z,1.83
2022-07-30T15:25:49.474Z,1.20
2022-07-30T15:28:16.161Z,1.20
2022-07-30T15:30:42.710Z,1.20
2022-07-30T15:33:09.423Z,1.10
2022-07-30T15:35:36.513Z,1.75
2022-07-30T15:38:03.393Z,1.70
2022-07-30T15:40:30.148Z,1.30
2022-07-30T15:42:56.620Z,0.90
2022-07-30T15:45:24.703Z,1.25
2022-07-30T15:47:51.748Z,1.20
2022-07-30T15:50:18.234Z,1.30
2022-07-30T15:52:45.097Z,1.30
2022-07-30T15:55:12.416Z,1.17
2022-07-30T15:57:40.507Z,1.13
2022-07-30T16:00:08.743Z,1.42
2022-07-30T16:02:36.137Z,1.00
2022-07-30T16:05:03.106Z,1.30
2022-07-30T16:07:30.238Z,1.90
2022-07-30T16:09:56.769Z,1.70
2022-07-30T16:12:23.219Z,2.15
2022-07-30T16:14:49.672Z,3.83
2022-07-30T16:17:16.513Z,2.05
2022-07-30T16:19:44.876Z,1.70
2022-07-30T16:22:14.967Z,1.40
2022-07-30T16:24:48.768Z,1.20
2022-07-30T16:27:16.695Z,1.05
2022-07-30T16:29:43.216Z,1.25
2022-07-30T16:32:09.674Z,1.00
2022-07-30T16:34:36.106Z,1.48
2022-07-30T16:37:04.214Z,1.25
2022-07-30T16:39:30.906Z,1.05
2022-07-30T16:41:57.455Z,1.05
2022-07-30T16:44:23.912Z,0.85
2022-07-30T16:46:50.379Z,1.15
2022-07-30T16:49:16.899Z,0.95
2022-07-30T16:51:43.983Z,0.90
2022-07-30T16:54:10.506Z,0.93
2022-07-30T16:56:36.941Z,1.10
2022-07-30T16:59:03.366Z,1.30
2022-07-30T17:01:31.125Z,1.02
2022-07-30T17:03:58.269Z,1.10
2022-07-30T17:06:24.808Z,0.82
2022-07-30T17:08:51.325Z,1.00
2022-07-30T17:11:45.952Z,0.90
2022-07-30T17:14:04.638Z,0.90
2022-07-30T17:16:31.042Z,0.85
2022-07-30T17:18:57.518Z,0.70
2022-07-30T17:21:23.977Z,0.88
2022-07-30T17:23:50.471Z,0.98
2022-07-30T17:26:17.082Z,0.70
2022-07-30T17:28:43.573Z,1.00
2022-07-30T17:31:10.041Z,0.95
2022-07-30T17:33:36.567Z,0.77
2022-07-30T17:36:03.387Z,0.80
2022-07-30T17:38:29.891Z,0.80
2022-07-30T17:40:56.385Z,0.82
2022-07-30T17:43:22.834Z,0.90
2022-07-30T17:45:49.309Z,0.73
2022-07-30T17:48:15.818Z,0.85
2022-07-30T17:50:42.329Z,0.80
2022-07-30T17:53:08.776Z,0.90
2022-07-30T17:55:35.468Z,0.85
2022-07-30T17:58:03.223Z,0.98
2022-07-30T18:00:29.765Z,0.80
2022-07-30T18:02:56.334Z,1.10
2022-07-30T18:05:22.995Z,0.90
2022-07-30T18:07:49.674Z,1.10
2022-07-30T18:10:16.183Z,1.10
2022-07-30T18:12:49.108Z,1.70
2022-07-30T18:15:17.546Z,1.00
2022-07-30T18:17:44.046Z,1.10
2022-07-30T18:20:11.096Z,1.20
2022-07-30T18:22:37.548Z,0.82
2022-07-30T18:25:07.771Z,0.90
2022-07-30T18:27:34.511Z,0.90
2022-07-30T18:30:01.008Z,1.02
2022-07-30T18:32:27.437Z,0.90
2022-07-30T18:34:53.865Z,0.82
2022-07-30T18:37:20.353Z,0.90
2022-07-30T18:39:46.800Z,0.82
2022-07-30T18:42:14.315Z,1.00
2022-07-30T18:44:40.736Z,0.85
2022-07-30T18:47:07.145Z,1.00
2022-07-30T18:49:37.155Z,0.90
2022-07-30T18:52:05.839Z,0.90
2022-07-30T18:54:32.602Z,1.00
2022-07-30T18:56:59.067Z,1.13
2022-07-30T18:59:25.538Z,0.73
2022-07-30T19:01:52.248Z,0.80
2022-07-30T19:04:18.717Z,0.82
2022-07-30T19:06:45.385Z,0.85
2022-07-30T19:09:17.211Z,0.90
2022-07-30T19:11:45.290Z,1.00
2022-07-30T19:14:13.187Z,1.00
2022-07-30T19:16:40.588Z,0.73
2022-07-30T19:19:07.374Z,0.80
2022-07-30T19:21:33.802Z,0.90
2022-07-30T19:24:01.482Z,0.90
2022-07-30T19:26:28.833Z,0.90
2022-07-30T19:28:55.277Z,1.13
2022-07-30T19:31:21.746Z,0.93
2022-07-30T19:33:48.286Z,0.90
2022-07-30T19:36:16.394Z,1.35
2022-07-30T19:38:45.157Z,0.80
2022-07-30T19:41:11.871Z,1.30
2022-07-30T19:43:40.620Z,0.93
2022-07-30T19:46:07.125Z,0.80
2022-07-30T19:48:36.092Z,0.80
2022-07-30T19:51:04.312Z,1.13
2022-07-30T19:53:34.082Z,1.00
2022-07-30T19:56:03.119Z,0.90
2022-07-30T19:58:30.801Z,1.20
2022-07-30T20:00:57.435Z,0.88
2022-07-30T20:03:25.433Z,1.50
2022-07-30T20:05:57.434Z,1.00
2022-07-30T20:08:27.674Z,0.80
2022-07-30T20:10:57.667Z,1.20
2022-07-30T20:13:25.364Z,0.80
2022-07-30T20:16:12.252Z,0.80
2022-07-30T20:18:39.392Z,1.00
2022-07-30T20:21:06.216Z,0.98
2022-07-30T20:23:32.725Z,0.98
2022-07-30T20:25:59.167Z,1.00
2022-07-30T20:28:27.230Z,1.00
2022-07-30T20:30:53.683Z,1.10
2022-07-30T20:33:23.795Z,1.23
2022-07-30T20:36:02.714Z,0.95
2022-07-30T20:38:30.346Z,1.10
2022-07-30T20:40:57.227Z,0.98
2022-07-30T20:43:23.747Z,1.15
2022-07-30T20:45:54.079Z,1.00
2022-07-30T20:48:25.510Z,1.08
2022-07-30T20:50:52.553Z,1.30
2022-07-30T20:53:19.831Z,1.10
2022-07-30T20:55:47.328Z,1.20
2022-07-30T20:58:16.660Z,1.13
2022-07-30T21:00:49.657Z,0.93
2022-07-30T21:03:21.271Z,0.90
2022-07-30T21:05:48.169Z,1.10
2022-07-30T21:08:17.783Z,0.85
2022-07-30T21:10:44.874Z,1.20
2022-07-30T21:13:12.724Z,1.15
2022-07-30T21:15:45.469Z,1.38
2022-07-30T21:18:26.063Z,1.42
2022-07-30T21:20:53.049Z,1.20
2022-07-30T21:23:22.338Z,1.60
2022-07-30T21:26:01.589Z,1.38
2022-07-30T21:28:35.931Z,1.42
2022-07-30T21:31:07.095Z,1.20
2022-07-30T21:33:34.931Z,1.13
2022-07-30T21:36:01.379Z,1.20
2022-07-30T21:38:28.591Z,1.42
2022-07-30T21:40:56.862Z,1.17
2022-07-30T21:43:29.854Z,1.10
2022-07-30T21:45:57.051Z,1.05
2022-07-30T21:48:24.256Z,1.10
2022-07-30T21:50:50.694Z,1.30
2022-07-30T21:53:17.535Z,1.30
2022-07-30T21:55:56.749Z,1.30
2022-07-30T21:58:26.077Z,1.20
2022-07-30T22:00:54.954Z,1.38
2022-07-30T22:04:04.033Z,0.93
2022-07-30T22:06:12.630Z,1.42
2022-07-30T22:08:39.706Z,1.20
2022-07-30T22:11:09.017Z,1.23
2022-07-30T22:13:51.119Z,1.20
2022-07-30T22:16:18.245Z,1.05
2022-07-30T22:18:45.484Z,1.10
2022-07-30T22:21:11.992Z,1.20
2022-07-30T22:23:41.195Z,1.20
2022-07-30T22:26:23.818Z,1.20
2022-07-30T22:28:54.288Z,1.20
2022-07-30T22:31:20.978Z,1.02
2022-07-30T22:33:47.766Z,1.13
2022-07-30T22:36:17.450Z,1.02
2022-07-30T22:38:58.711Z,1.27
2022-07-30T22:41:25.847Z,1.17
2022-07-30T22:43:55.584Z,1.10
2022-07-30T22:46:31.009Z,1.30
2022-07-30T22:52:04.883Z,1.23
2022-07-30T22:54:37.313Z,1.00
2022-07-30T22:57:04.239Z,1.33
2022-07-30T23:00:00.273Z,1.27
2022-07-30T23:02:17.951Z,1.45
2022-07-30T23:04:44.460Z,1.25
2022-07-30T23:07:14.000Z,1.10
2022-07-30T23:09:51.754Z,1.17
2022-07-30T23:12:20.204Z,1.30
2022-07-30T23:14:47.648Z,1.10
2022-07-30T23:17:14.459Z,1.02
2022-07-30T23:19:40.927Z,1.20
2022-07-30T23:22:07.319Z,1.17
2022-07-30T23:24:33.942Z,1.40
2022-07-30T23:27:00.832Z,1.15
2022-07-30T23:29:28.574Z,1.20
2022-07-30T23:31:55.594Z,1.40
2022-07-30T23:34:22.285Z,1.27
2022-07-30T23:36:48.933Z,1.55
2022-07-30T23:39:15.468Z,1.48
2022-07-30T23:41:42.044Z,1.30
2022-07-30T23:44:08.493Z,1.50
2022-07-30T23:46:37.100Z,1.10
2022-07-30T23:49:04.606Z,1.45
2022-07-30T23:51:33.309Z,1.27
2022-07-30T23:54:00.355Z,1.25
2022-07-30T23:56:26.909Z,1.58
2022-07-30T23:58:53.406Z,1.25
